Terminal Aerodrome Forecast
Issued by NWS

Home | Current Version | Previous Version | Text Only | Print | Product List | Glossary Off
Versions: 1 2 3 4 5 6 7 8 9 10 11 12 13 14 15 16 17 18 19 20 21 22 23 24 25 26 27 28 29

978
FTUS43 KBIS 211731
TAFJMS
TAF
KJMS 211731Z 2118/2218 32017G25KT P6SM BKN015
     FM212000 31013G21KT P6SM SCT020
     FM220000 31009KT P6SM FEW250
     FM220700 22004KT P6SM SKC
     FM221300 18008KT P6SM OVC140=

USA.gov is the U.S. government's official web portal to all federal, state and local government web resources and services.